Time;durP1;ratioP1;P1;durP2;ratioP2;P2;SDS_P1;SDS_P2;PMS_P1;PMS_P2;Temp;Humidity;BMP_temperature;BMP_pressure;BME280_temperature;BME280_humidity;BME280_pressure;Samples;Min_cycle;Max_cycle;Signal;HPM_P1;HPM_P2
2022/04/29 00:01:25;;;;;;;6.90;4.55;;;;;;;;;;5070164;28;20071;-49
2022/04/29 00:03:53;;;;;;;10.13;4.93;;;;;;;;;;5075123;28;20480;-49
2022/04/29 00:06:19;;;;;;;7.15;4.70;;;;;;;;;;5072278;28;20031;-52
2022/04/29 00:08:45;;;;;;;8.05;5.05;;;;;;;;;;5069388;28;20047;-49
2022/04/29 00:11:11;;;;;;;8.18;4.72;;;;;;;;;;5072313;28;20933;-51
2022/04/29 00:13:37;;;;;;;8.88;4.72;;;;;;;;;;5066088;28;20116;-49
2022/04/29 00:16:03;;;;;;;9.95;5.85;;;;;;;;;;5061768;28;20021;-48
2022/04/29 00:18:29;;;;;;;10.68;5.43;;;;;;;;;;5054174;28;20112;-48
2022/04/29 00:20:55;;;;;;;15.25;5.70;;;;;;;;;;5055436;28;20755;-49
2022/04/29 00:23:21;;;;;;;10.80;5.50;;;;;;;;;;5071861;28;20039;-49
2022/04/29 00:25:48;;;;;;;8.15;5.50;;;;;;;;;;5073139;28;20028;-49
2022/04/29 00:28:14;;;;;;;10.88;5.93;;;;;;;;;;5075744;28;20445;-49
2022/04/29 00:30:40;;;;;;;13.10;6.10;;;;;;;;;;5081463;28;20107;-49
2022/04/29 00:33:06;;;;;;;10.63;5.38;;;;;;;;;;5067787;28;20042;-50
2022/04/29 00:35:32;;;;;;;11.95;6.07;;;;;;;;;;5072225;28;20032;-52
2022/04/29 00:37:58;;;;;;;14.40;5.60;;;;;;;;;;5056762;28;20028;-49
2022/04/29 00:40:26;;;;;;;10.70;5.78;;;;;;;;;;5063689;28;20033;-49
2022/04/29 00:42:52;;;;;;;8.13;5.00;;;;;;;;;;5088002;28;20040;-49
2022/04/29 00:45:20;;;;;;;8.80;5.68;;;;;;;;;;5090729;28;20023;-49
2022/04/29 00:47:47;;;;;;;8.82;4.82;;;;;;;;;;5066022;28;20144;-50
2022/04/29 00:50:14;;;;;;;6.82;5.10;;;;;;;;;;5068039;28;20025;-49
2022/04/29 00:52:44;;;;;;;15.80;5.32;;;;;;;;;;5060569;28;20439;-49
2022/04/29 00:55:12;;;;;;;9.13;4.53;;;;;;;;;;5068275;28;20033;-49
2022/04/29 00:57:50;;;;;;;8.60;4.97;;;;;;;;;;5074799;28;20046;-49
2022/04/29 01:00:18;;;;;;;11.00;5.60;;;;;;;;;;5074693;28;20028;-49
2022/04/29 01:02:45;;;;;;;7.80;5.15;;;;;;;;;;5069223;28;20488;-51
2022/04/29 01:05:12;;;;;;;13.00;5.78;;;;;;;;;;5037989;28;20036;-49
2022/04/29 01:07:39;;;;;;;9.77;5.75;;;;;;;;;;5063327;28;20051;-52
2022/04/29 01:10:06;;;;;;;12.20;5.88;;;;;;;;;;5071122;28;20574;-50
2022/04/29 01:12:34;;;;;;;13.25;5.95;;;;;;;;;;5057810;28;20089;-51
2022/04/29 01:15:06;;;;;;;9.52;5.60;;;;;;;;;;5085166;28;20095;-48
2022/04/29 01:17:33;;;;;;;11.05;5.28;;;;;;;;;;5078185;28;20076;-51
2022/04/29 01:20:06;;;;;;;10.70;6.32;;;;;;;;;;5073219;28;20033;-51
2022/04/29 01:22:33;;;;;;;11.45;6.25;;;;;;;;;;5072017;28;20033;-51
2022/04/29 01:24:59;;;;;;;8.32;5.30;;;;;;;;;;5063519;28;20031;-47
2022/04/29 01:27:25;;;;;;;12.35;5.93;;;;;;;;;;5065381;28;20032;-51
2022/04/29 01:29:56;;;;;;;11.50;6.00;;;;;;;;;;5062265;28;20032;-49
2022/04/29 01:32:22;;;;;;;9.98;6.47;;;;;;;;;;5081605;28;20189;-52
2022/04/29 01:34:48;;;;;;;10.75;6.20;;;;;;;;;;5089820;28;20024;-49
2022/04/29 01:37:15;;;;;;;10.45;6.25;;;;;;;;;;5066286;28;20047;-50
2022/04/29 01:39:41;;;;;;;12.00;6.70;;;;;;;;;;5072707;28;20028;-49
2022/04/29 01:42:07;;;;;;;11.88;6.15;;;;;;;;;;5073032;28;20032;-51
2022/04/29 01:44:33;;;;;;;13.60;6.45;;;;;;;;;;5069270;28;20042;-54
2022/04/29 01:46:59;;;;;;;14.15;6.97;;;;;;;;;;5060641;28;20037;-53
2022/04/29 01:49:25;;;;;;;14.05;7.25;;;;;;;;;;5073297;28;20035;-51
2022/04/29 01:51:54;;;;;;;11.32;6.30;;;;;;;;;;5075669;28;20095;-52
2022/04/29 01:54:19;;;;;;;12.88;6.45;;;;;;;;;;5075147;28;20119;-55
2022/04/29 01:56:47;;;;;;;12.48;6.90;;;;;;;;;;5083092;28;20387;-48
2022/04/29 01:59:13;;;;;;;13.20;6.18;;;;;;;;;;5069169;28;20036;-51
2022/04/29 02:01:39;;;;;;;11.80;6.53;;;;;;;;;;5065068;28;20025;-49
2022/04/29 02:04:05;;;;;;;12.98;6.65;;;;;;;;;;5084157;28;20036;-52
2022/04/29 02:06:31;;;;;;;10.95;6.50;;;;;;;;;;5067911;28;20392;-49
2022/04/29 02:08:57;;;;;;;13.18;6.60;;;;;;;;;;5087982;28;20032;-51
2022/04/29 02:11:23;;;;;;;14.38;6.65;;;;;;;;;;5075061;28;20032;-50
2022/04/29 02:13:49;;;;;;;11.07;7.00;;;;;;;;;;5082744;28;20108;-50
2022/04/29 02:16:15;;;;;;;10.43;7.07;;;;;;;;;;5075040;28;20040;-51
2022/04/29 02:18:42;;;;;;;12.45;6.47;;;;;;;;;;5077835;28;20388;-52
2022/04/29 02:21:08;;;;;;;11.73;6.88;;;;;;;;;;5068311;28;20362;-52
2022/04/29 02:23:34;;;;;;;13.70;6.95;;;;;;;;;;5077549;28;20056;-52
2022/04/29 02:26:00;;;;;;;9.40;6.43;;;;;;;;;;5074355;28;20071;-52
2022/04/29 02:28:31;;;;;;;10.48;6.15;;;;;;;;;;5082300;28;20031;-51
2022/04/29 02:30:57;;;;;;;14.88;6.18;;;;;;;;;;5059024;28;20401;-49
2022/04/29 02:33:23;;;;;;;11.20;5.88;;;;;;;;;;5079776;28;20039;-53
2022/04/29 02:35:50;;;;;;;14.43;6.28;;;;;;;;;;5076070;28;20508;-49
2022/04/29 02:38:16;;;;;;;10.95;6.40;;;;;;;;;;5068767;28;20103;-51
2022/04/29 02:40:42;;;;;;;13.40;5.72;;;;;;;;;;5070099;28;20033;-52
2022/04/29 02:43:08;;;;;;;12.90;6.30;;;;;;;;;;5087454;28;20039;-51
2022/04/29 02:45:34;;;;;;;11.68;6.82;;;;;;;;;;5073083;28;20032;-51
2022/04/29 02:48:00;;;;;;;11.95;6.97;;;;;;;;;;5064806;28;20037;-52
2022/04/29 02:50:26;;;;;;;11.85;6.80;;;;;;;;;;5068559;28;20032;-52
2022/04/29 02:52:52;;;;;;;11.68;7.00;;;;;;;;;;5057369;28;20053;-51
2022/04/29 02:55:18;;;;;;;15.60;6.80;;;;;;;;;;5074418;28;20055;-53
2022/04/29 02:57:44;;;;;;;13.57;6.43;;;;;;;;;;5078021;28;20032;-52
2022/04/29 03:00:10;;;;;;;12.13;5.90;;;;;;;;;;5084284;28;20016;-49
2022/04/29 03:02:36;;;;;;;14.55;7.13;;;;;;;;;;5058897;28;20033;-50
2022/04/29 03:05:04;;;;;;;10.43;6.35;;;;;;;;;;5055065;28;20032;-49
2022/04/29 03:07:30;;;;;;;10.30;6.07;;;;;;;;;;5062116;28;20035;-49
2022/04/29 03:09:56;;;;;;;12.93;7.00;;;;;;;;;;5084230;28;20047;-49
2022/04/29 03:12:23;;;;;;;11.68;7.05;;;;;;;;;;5080204;28;20402;-51
2022/04/29 03:14:49;;;;;;;14.95;7.28;;;;;;;;;;5073564;28;20554;-49
2022/04/29 03:20:08;;;;;;;13.63;7.70;;;;;;;;;;5064633;28;20044;-51
2022/04/29 03:22:34;;;;;;;16.38;8.13;;;;;;;;;;5060075;28;20115;-49
2022/04/29 03:25:00;;;;;;;15.25;7.80;;;;;;;;;;5071255;28;20036;-49
2022/04/29 03:27:26;;;;;;;14.20;7.78;;;;;;;;;;5073009;28;20075;-52
2022/04/29 03:29:52;;;;;;;18.88;8.02;;;;;;;;;;5079043;28;20039;-51
2022/04/29 03:32:18;;;;;;;12.68;7.28;;;;;;;;;;5066008;28;20029;-51
2022/04/29 03:34:44;;;;;;;15.68;7.35;;;;;;;;;;5059688;28;20028;-50
2022/04/29 03:37:10;;;;;;;13.77;7.10;;;;;;;;;;5068317;28;20400;-51
2022/04/29 03:39:36;;;;;;;17.33;6.95;;;;;;;;;;5070999;28;20035;-52
2022/04/29 03:42:02;;;;;;;15.02;7.32;;;;;;;;;;5087518;28;20522;-54
2022/04/29 03:44:28;;;;;;;11.75;6.97;;;;;;;;;;5074061;28;20123;-54
2022/04/29 03:46:54;;;;;;;16.58;7.82;;;;;;;;;;5076929;28;20502;-54
2022/04/29 03:49:35;;;;;;;17.13;8.07;;;;;;;;;;5062433;28;20451;-52
2022/04/29 03:52:01;;;;;;;13.18;7.32;;;;;;;;;;5080310;28;20043;-50
2022/04/29 03:54:27;;;;;;;21.60;9.02;;;;;;;;;;5073157;28;20043;-50
2022/04/29 03:56:53;;;;;;;14.38;6.72;;;;;;;;;;5061328;28;20111;-49
2022/04/29 03:59:19;;;;;;;17.17;7.47;;;;;;;;;;5083194;28;20448;-50
2022/04/29 04:01:45;;;;;;;17.02;8.35;;;;;;;;;;5057092;28;20025;-49
2022/04/29 04:04:11;;;;;;;18.08;8.25;;;;;;;;;;5066717;28;20039;-48
2022/04/29 04:06:49;;;;;;;17.20;7.85;;;;;;;;;;5060759;28;20397;-49
2022/04/29 04:09:16;;;;;;;19.38;8.65;;;;;;;;;;5077689;28;20074;-49
2022/04/29 04:11:42;;;;;;;15.38;8.07;;;;;;;;;;5060110;28;20120;-50
2022/04/29 04:14:08;;;;;;;20.52;7.45;;;;;;;;;;5058876;28;20385;-52
2022/04/29 04:16:35;;;;;;;11.98;6.72;;;;;;;;;;5061194;28;20032;-49
2022/04/29 04:19:01;;;;;;;18.05;7.50;;;;;;;;;;5067738;28;20118;-52
2022/04/29 04:21:27;;;;;;;13.93;7.07;;;;;;;;;;5063154;28;20564;-51
2022/04/29 04:23:53;;;;;;;13.02;6.82;;;;;;;;;;5066314;28;20453;-48
2022/04/29 04:26:20;;;;;;;15.00;7.03;;;;;;;;;;5060402;28;20040;-49
2022/04/29 04:28:46;;;;;;;11.55;6.45;;;;;;;;;;5045845;28;20020;-50
2022/04/29 04:31:12;;;;;;;13.10;7.03;;;;;;;;;;5080374;28;20310;-52
2022/04/29 04:33:38;;;;;;;14.63;7.03;;;;;;;;;;5077711;28;20024;-51
2022/04/29 04:36:04;;;;;;;12.27;6.50;;;;;;;;;;5075627;28;20016;-52
2022/04/29 04:38:34;;;;;;;11.25;5.93;;;;;;;;;;5057220;28;20060;-50
2022/04/29 04:41:00;;;;;;;15.10;6.93;;;;;;;;;;5054232;28;20032;-51
2022/04/29 04:43:27;;;;;;;11.77;6.57;;;;;;;;;;5064322;28;20036;-51
2022/04/29 04:45:53;;;;;;;13.70;6.88;;;;;;;;;;5063930;28;20024;-50
2022/04/29 04:48:19;;;;;;;11.50;6.03;;;;;;;;;;5060160;28;20112;-48
2022/04/29 04:50:46;;;;;;;12.25;7.00;;;;;;;;;;5058704;28;20033;-50
2022/04/29 04:53:12;;;;;;;15.90;6.57;;;;;;;;;;5062728;28;20510;-53
2022/04/29 04:55:38;;;;;;;12.82;7.47;;;;;;;;;;5070810;28;20123;-51
2022/04/29 04:58:04;;;;;;;13.60;7.30;;;;;;;;;;5058520;28;20019;-51
2022/04/29 05:00:30;;;;;;;15.98;6.53;;;;;;;;;;5068842;28;20028;-50
2022/04/29 05:02:56;;;;;;;16.23;7.00;;;;;;;;;;5057528;28;20476;-49
2022/04/29 05:05:22;;;;;;;15.55;7.40;;;;;;;;;;5066324;28;20039;-49
2022/04/29 05:07:48;;;;;;;17.10;7.35;;;;;;;;;;5062566;28;20060;-49
2022/04/29 05:10:14;;;;;;;14.50;6.55;;;;;;;;;;5072504;28;20059;-52
2022/04/29 05:12:41;;;;;;;18.42;7.72;;;;;;;;;;5063869;28;20021;-50
2022/04/29 05:15:07;;;;;;;15.20;8.10;;;;;;;;;;5060031;28;20040;-51
2022/04/29 05:17:33;;;;;;;17.77;8.25;;;;;;;;;;5068722;28;20038;-49
2022/04/29 05:19:59;;;;;;;21.00;8.52;;;;;;;;;;5072932;28;20032;-50
2022/04/29 05:22:28;;;;;;;18.35;7.82;;;;;;;;;;5061998;28;20388;-49
2022/04/29 05:24:54;;;;;;;13.82;7.28;;;;;;;;;;5063549;28;20056;-49
2022/04/29 05:27:20;;;;;;;15.50;8.02;;;;;;;;;;5049398;28;20033;-51
2022/04/29 05:29:46;;;;;;;17.63;8.25;;;;;;;;;;5047155;28;20041;-51
2022/04/29 05:32:12;;;;;;;22.00;7.72;;;;;;;;;;5058996;28;20059;-49
2022/04/29 05:34:38;;;;;;;16.25;7.60;;;;;;;;;;5062797;28;20385;-50
2022/04/29 05:37:04;;;;;;;16.13;7.45;;;;;;;;;;5071124;28;20028;-50
2022/04/29 05:42:15;;;;;;;13.68;7.20;;;;;;;;;;5079728;28;20460;-50
2022/04/29 05:44:41;;;;;;;16.42;7.97;;;;;;;;;;5062786;28;20254;-48
2022/04/29 05:47:07;;;;;;;12.95;7.63;;;;;;;;;;5062424;28;20041;-49
2022/04/29 05:49:33;;;;;;;16.40;7.90;;;;;;;;;;5062726;28;20487;-51
2022/04/29 05:52:03;;;;;;;18.77;7.47;;;;;;;;;;5076637;28;20051;-49
2022/04/29 05:54:29;;;;;;;16.90;7.43;;;;;;;;;;5053866;28;20080;-50
2022/04/29 05:56:55;;;;;;;22.17;7.78;;;;;;;;;;5050650;28;20031;-51
2022/04/29 05:59:21;;;;;;;21.63;8.25;;;;;;;;;;5046107;28;20294;-50
2022/04/29 06:01:47;;;;;;;20.55;7.75;;;;;;;;;;5057038;28;20033;-52
2022/04/29 06:04:13;;;;;;;17.40;8.27;;;;;;;;;;5045235;28;20033;-51
2022/04/29 06:06:39;;;;;;;17.38;8.13;;;;;;;;;;5068093;28;20369;-49
2022/04/29 06:09:05;;;;;;;18.00;7.78;;;;;;;;;;5073380;28;20032;-49
2022/04/29 06:11:31;;;;;;;15.77;7.65;;;;;;;;;;5062317;28;20033;-50
2022/04/29 06:13:57;;;;;;;11.05;7.07;;;;;;;;;;5045743;28;20025;-51
2022/04/29 06:16:23;;;;;;;12.82;6.82;;;;;;;;;;5063825;28;20404;-54
2022/04/29 06:18:49;;;;;;;14.63;7.22;;;;;;;;;;5045184;28;20025;-51
2022/04/29 06:21:16;;;;;;;13.63;6.05;;;;;;;;;;5043261;28;20465;-52
2022/04/29 06:23:43;;;;;;;13.25;6.80;;;;;;;;;;5053139;28;20060;-52
2022/04/29 06:26:09;;;;;;;9.77;5.30;;;;;;;;;;5060260;28;20163;-49
2022/04/29 06:28:36;;;;;;;13.23;6.45;;;;;;;;;;5052664;28;20032;-51
2022/04/29 06:31:02;;;;;;;12.32;5.55;;;;;;;;;;5062494;28;20032;-51
2022/04/29 06:33:31;;;;;;;10.75;5.80;;;;;;;;;;5059632;28;20030;-51
2022/04/29 06:35:57;;;;;;;12.18;5.93;;;;;;;;;;5049138;28;20025;-50
2022/04/29 06:38:23;;;;;;;9.13;5.00;;;;;;;;;;5047128;28;20033;-51
2022/04/29 06:40:50;;;;;;;12.57;6.13;;;;;;;;;;5059581;28;20075;-52
2022/04/29 06:43:16;;;;;;;11.15;4.60;;;;;;;;;;5061638;28;20098;-51
2022/04/29 06:45:42;;;;;;;6.22;3.95;;;;;;;;;;5042479;28;20033;-51
2022/04/29 06:48:09;;;;;;;11.70;4.32;;;;;;;;;;5072524;28;20060;-51
2022/04/29 06:50:35;;;;;;;7.53;3.58;;;;;;;;;;5063168;28;20112;-52
2022/04/29 06:53:01;;;;;;;8.77;4.38;;;;;;;;;;5074021;28;20064;-52
2022/04/29 06:55:27;;;;;;;7.30;2.97;;;;;;;;;;5065550;28;20021;-52
2022/04/29 06:57:53;;;;;;;4.75;2.80;;;;;;;;;;5081610;28;20083;-51
2022/04/29 07:00:20;;;;;;;6.35;2.47;;;;;;;;;;5069272;28;20491;-51
2022/04/29 07:02:46;;;;;;;7.50;2.63;;;;;;;;;;5067739;28;20102;-51
2022/04/29 07:05:13;;;;;;;6.72;2.50;;;;;;;;;;5092540;28;20560;-51
2022/04/29 07:07:39;;;;;;;5.45;2.60;;;;;;;;;;5092490;28;20526;-50
2022/04/29 07:10:06;;;;;;;4.45;2.40;;;;;;;;;;5062676;28;20129;-51
2022/04/29 07:12:33;;;;;;;4.60;2.63;;;;;;;;;;5080072;28;20032;-51
2022/04/29 07:14:59;;;;;;;5.68;2.40;;;;;;;;;;5083201;28;20112;-51
2022/04/29 07:17:26;;;;;;;5.93;2.05;;;;;;;;;;5069101;28;20360;-50
2022/04/29 07:19:53;;;;;;;7.10;2.50;;;;;;;;;;5091780;28;20498;-52
2022/04/29 07:22:19;;;;;;;5.07;1.77;;;;;;;;;;5092142;28;20031;-50
2022/04/29 07:24:46;;;;;;;5.20;2.33;;;;;;;;;;5091665;28;20025;-53
2022/04/29 07:27:14;;;;;;;7.60;2.25;;;;;;;;;;5078077;28;20105;-51
2022/04/29 07:29:40;;;;;;;3.72;1.80;;;;;;;;;;5091845;28;20064;-50
2022/04/29 07:32:07;;;;;;;7.35;1.77;;;;;;;;;;5085251;28;20038;-52
2022/04/29 07:42:47;;;;;;;5.82;1.73;;;;;;;;;;5074851;28;20513;-52
2022/04/29 07:45:13;;;;;;;4.45;1.80;;;;;;;;;;5074475;28;20044;-51
2022/04/29 07:47:39;;;;;;;4.38;1.60;;;;;;;;;;5081274;28;20133;-52
2022/04/29 07:50:06;;;;;;;5.03;2.40;;;;;;;;;;5081800;28;20399;-51
2022/04/29 07:52:33;;;;;;;4.28;1.83;;;;;;;;;;5064640;28;20617;-51
2022/04/29 07:54:59;;;;;;;4.57;1.58;;;;;;;;;;5080607;28;20112;-50
2022/04/29 07:57:26;;;;;;;12.77;1.73;;;;;;;;;;5086508;28;20738;-51
2022/04/29 07:59:52;;;;;;;5.82;1.30;;;;;;;;;;5081814;28;20012;-50
2022/04/29 08:02:18;;;;;;;4.55;1.58;;;;;;;;;;5091077;28;20434;-50
2022/04/29 08:04:44;;;;;;;4.15;1.63;;;;;;;;;;5084804;28;20063;-51
2022/04/29 08:07:11;;;;;;;4.78;1.25;;;;;;;;;;5091392;28;20031;-53
2022/04/29 08:09:37;;;;;;;3.88;1.60;;;;;;;;;;5087400;28;20032;-51
2022/04/29 08:12:04;;;;;;;5.40;1.95;;;;;;;;;;5072934;28;20034;-52
2022/04/29 08:14:31;;;;;;;5.35;1.42;;;;;;;;;;5086551;28;20396;-50
2022/04/29 08:16:57;;;;;;;3.85;1.30;;;;;;;;;;5086921;28;20586;-51
2022/04/29 08:19:23;;;;;;;4.22;1.48;;;;;;;;;;5080007;28;20100;-51
2022/04/29 08:21:49;;;;;;;5.70;1.60;;;;;;;;;;5086842;28;20024;-50
2022/04/29 08:24:15;;;;;;;5.75;2.40;;;;;;;;;;5087024;28;20107;-50
2022/04/29 08:26:41;;;;;;;7.13;1.52;;;;;;;;;;5078857;28;20024;-53
2022/04/29 08:29:07;;;;;;;3.17;1.10;;;;;;;;;;5090659;28;20526;-51
2022/04/29 08:31:34;;;;;;;4.97;1.27;;;;;;;;;;5078414;28;20055;-51
2022/04/29 08:34:00;;;;;;;2.58;0.85;;;;;;;;;;5091236;28;20086;-52
2022/04/29 08:36:26;;;;;;;4.78;1.40;;;;;;;;;;5089593;28;20392;-51
2022/04/29 08:38:52;;;;;;;5.80;1.40;;;;;;;;;;5079334;28;20021;-53
2022/04/29 08:41:20;;;;;;;3.70;1.33;;;;;;;;;;5087722;28;20388;-51
2022/04/29 08:43:48;;;;;;;5.68;1.83;;;;;;;;;;5077786;28;20032;-51
2022/04/29 08:46:14;;;;;;;4.57;1.50;;;;;;;;;;5074300;28;20032;-51
2022/04/29 08:48:41;;;;;;;5.60;1.58;;;;;;;;;;5087403;28;20039;-50
2022/04/29 08:51:08;;;;;;;4.60;1.48;;;;;;;;;;5075673;28;20052;-51
2022/04/29 08:53:35;;;;;;;4.75;2.35;;;;;;;;;;5090621;28;20690;-51
2022/04/29 08:58:47;;;;;;;3.78;2.08;;;;;;;;;;5097029;28;20356;-52
2022/04/29 09:01:16;;;;;;;5.65;1.90;;;;;;;;;;5093064;28;20127;-50
2022/04/29 09:03:42;;;;;;;4.40;2.08;;;;;;;;;;5091231;28;20027;-51
2022/04/29 09:06:08;;;;;;;5.03;2.00;;;;;;;;;;5086437;28;20056;-51
2022/04/29 09:08:38;;;;;;;10.63;1.90;;;;;;;;;;5077538;28;20025;-51
2022/04/29 09:11:05;;;;;;;3.80;1.67;;;;;;;;;;5078595;28;20032;-51
2022/04/29 09:13:32;;;;;;;5.20;1.45;;;;;;;;;;5096854;28;20016;-53
2022/04/29 09:15:59;;;;;;;5.50;2.28;;;;;;;;;;5085943;28;20024;-51
2022/04/29 09:18:28;;;;;;;5.78;2.30;;;;;;;;;;5093582;28;20062;-51
2022/04/29 09:20:54;;;;;;;9.63;2.95;;;;;;;;;;5074069;28;20108;-52
2022/04/29 09:23:27;;;;;;;8.63;3.70;;;;;;;;;;5081445;28;20029;-55
2022/04/29 09:25:55;;;;;;;4.50;2.08;;;;;;;;;;5076734;28;20025;-51
2022/04/29 09:28:22;;;;;;;5.75;2.50;;;;;;;;;;5089208;28;20043;-51
2022/04/29 09:30:48;;;;;;;12.00;2.85;;;;;;;;;;5091474;28;20020;-54
2022/04/29 09:33:24;;;;;;;5.25;2.63;;;;;;;;;;5079869;28;20083;-51
2022/04/29 09:35:50;;;;;;;8.15;2.65;;;;;;;;;;5092939;28;20521;-51
2022/04/29 09:41:01;;;;;;;5.55;2.47;;;;;;;;;;5096656;28;20058;-51
2022/04/29 09:43:34;;;;;;;5.47;2.45;;;;;;;;;;5096678;28;20107;-54
2022/04/29 09:46:19;;;;;;;4.65;2.08;;;;;;;;;;5070284;28;20029;-52
2022/04/29 09:48:58;;;;;;;6.50;2.25;;;;;;;;;;5097215;28;20451;-51
2022/04/29 09:51:43;;;;;;;7.85;2.22;;;;;;;;;;5096099;28;20068;-51
2022/04/29 09:54:19;;;;;;;2.88;1.60;;;;;;;;;;5081000;28;20060;-53
2022/04/29 09:56:46;;;;;;;5.53;2.28;;;;;;;;;;5087407;28;20379;-50
2022/04/29 09:59:12;;;;;;;5.95;2.50;;;;;;;;;;5096345;28;20054;-51
2022/04/29 10:01:41;;;;;;;3.60;2.08;;;;;;;;;;5091060;28;20024;-53
2022/04/29 10:04:08;;;;;;;4.57;2.08;;;;;;;;;;5096903;28;20604;-52
2022/04/29 10:06:34;;;;;;;5.78;2.50;;;;;;;;;;5095592;28;20028;-53
2022/04/29 10:09:01;;;;;;;5.00;2.20;;;;;;;;;;5091609;28;20048;-53
2022/04/29 10:11:27;;;;;;;10.52;2.20;;;;;;;;;;5078350;28;20544;-53
2022/04/29 10:13:54;;;;;;;5.10;2.40;;;;;;;;;;5078955;28;20526;-52
2022/04/29 10:16:20;;;;;;;3.47;2.08;;;;;;;;;;5083754;28;20027;-52
2022/04/29 10:21:38;;;;;;;3.47;1.95;;;;;;;;;;5092973;28;20105;-55
2022/04/29 10:24:04;;;;;;;4.72;2.17;;;;;;;;;;5093218;28;20036;-54
2022/04/29 10:26:31;;;;;;;6.45;2.25;;;;;;;;;;5074541;28;20032;-51
2022/04/29 10:28:57;;;;;;;6.50;2.25;;;;;;;;;;5088320;28;20039;-52
2022/04/29 10:31:23;;;;;;;5.57;2.30;;;;;;;;;;5081494;28;20104;-52
2022/04/29 10:33:50;;;;;;;4.68;2.38;;;;;;;;;;5093222;28;20448;-53
2022/04/29 10:36:16;;;;;;;4.70;2.20;;;;;;;;;;5090489;28;20077;-51
2022/04/29 10:38:46;;;;;;;4.78;2.00;;;;;;;;;;5093115;28;20024;-51
2022/04/29 10:41:14;;;;;;;6.15;2.13;;;;;;;;;;5092606;28;20615;-54
2022/04/29 10:43:40;;;;;;;5.90;2.40;;;;;;;;;;5082904;28;20033;-52
2022/04/29 10:46:06;;;;;;;5.00;1.90;;;;;;;;;;5067434;28;20515;-54
2022/04/29 10:48:34;;;;;;;3.90;2.10;;;;;;;;;;5063838;28;20031;-53
2022/04/29 10:51:10;;;;;;;4.40;2.08;;;;;;;;;;5086558;28;20082;-51
2022/04/29 10:53:37;;;;;;;4.82;1.98;;;;;;;;;;5092762;28;20066;-54
2022/04/29 10:56:22;;;;;;;6.95;2.25;;;;;;;;;;5079168;28;20059;-54
2022/04/29 10:58:48;;;;;;;7.78;2.28;;;;;;;;;;5091266;28;20099;-51
2022/04/29 11:01:28;;;;;;;10.25;2.78;;;;;;;;;;5070573;28;20020;-52
2022/04/29 11:03:55;;;;;;;9.35;2.47;;;;;;;;;;5073302;28;20036;-53
2022/04/29 11:06:21;;;;;;;4.43;2.17;;;;;;;;;;5061823;28;20120;-55
2022/04/29 11:08:46;;;;;;;3.88;1.80;;;;;;;;;;5089462;28;20099;-53
2022/04/29 11:11:13;;;;;;;4.68;1.67;;;;;;;;;;5091968;28;20434;-53
2022/04/29 11:13:47;;;;;;;5.03;2.03;;;;;;;;;;5091957;28;20032;-54
2022/04/29 11:16:19;;;;;;;7.38;2.42;;;;;;;;;;5078631;28;20438;-55
2022/04/29 11:18:45;;;;;;;10.80;1.98;;;;;;;;;;5091626;28;20172;-54
2022/04/29 11:26:49;;;;;;;3.25;1.50;;;;;;;;;;5076778;28;20082;-54
2022/04/29 11:29:15;;;;;;;;;;;;;;;;;;5070731;28;20032;-53
2022/04/29 11:31:41;;;;;;;5.25;1.70;;;;;;;;;;5082993;28;20272;-53
2022/04/29 11:34:08;;;;;;;3.28;1.63;;;;;;;;;;5066193;28;20029;-54
2022/04/29 11:36:34;;;;;;;1.95;1.15;;;;;;;;;;5077315;28;20434;-56
2022/04/29 11:39:03;;;;;;;2.92;1.33;;;;;;;;;;5091962;28;20024;-55
2022/04/29 11:41:29;;;;;;;4.18;1.48;;;;;;;;;;5083747;28;20035;-54
2022/04/29 11:43:56;;;;;;;2.80;1.63;;;;;;;;;;5090275;28;20543;-53
2022/04/29 11:46:22;;;;;;;5.80;1.98;;;;;;;;;;5075790;28;20054;-55
2022/04/29 11:48:58;;;;;;;4.03;1.50;;;;;;;;;;5062740;28;20083;-54
2022/04/29 11:51:25;;;;;;;2.25;0.93;;;;;;;;;;5063974;28;20443;-52
2022/04/29 11:53:54;;;;;;;3.67;1.52;;;;;;;;;;5066908;28;20040;-55
2022/04/29 11:56:20;;;;;;;2.97;1.60;;;;;;;;;;5071947;28;20052;-56
2022/04/29 11:58:46;;;;;;;3.05;1.95;;;;;;;;;;5071742;28;20099;-56
2022/04/29 12:01:15;;;;;;;3.13;1.88;;;;;;;;;;5080511;28;20029;-55
2022/04/29 12:03:47;;;;;;;3.40;1.20;;;;;;;;;;5060078;28;20074;-54
2022/04/29 12:06:13;;;;;;;2.60;1.50;;;;;;;;;;5079051;28;20046;-54
2022/04/29 12:08:39;;;;;;;6.75;2.22;;;;;;;;;;5065506;28;20472;-55
2022/04/29 12:11:06;;;;;;;4.90;1.35;;;;;;;;;;5052952;28;20035;-55
2022/04/29 12:13:34;;;;;;;3.90;1.35;;;;;;;;;;5052048;28;20024;-52
2022/04/29 12:16:02;;;;;;;1.98;0.93;;;;;;;;;;5050717;28;20077;-52
2022/04/29 12:18:44;;;;;;;1.92;1.10;;;;;;;;;;5053326;28;20473;-53
2022/04/29 12:21:10;;;;;;;3.50;1.52;;;;;;;;;;5060768;28;20545;-54
2022/04/29 12:23:37;;;;;;;4.18;0.82;;;;;;;;;;5070870;28;20094;-56
2022/04/29 12:26:03;;;;;;;3.15;1.00;;;;;;;;;;5066924;28;20832;-55
2022/04/29 12:28:31;;;;;;;3.50;1.48;;;;;;;;;;5060151;28;20028;-56
2022/04/29 12:36:53;;;;;;;2.90;0.85;;;;;;;;;;5077537;28;20051;-54
2022/04/29 12:39:26;;;;;;;1.30;0.65;;;;;;;;;;5076957;28;20024;-53
2022/04/29 12:41:59;;;;;;;1.65;0.80;;;;;;;;;;5067810;28;20035;-54
2022/04/29 12:47:24;;;;;;;3.35;0.80;;;;;;;;;;5063236;28;20055;-53
2022/04/29 12:49:50;;;;;;;1.92;1.08;;;;;;;;;;5080349;28;20098;-52
2022/04/29 12:52:16;;;;;;;2.90;1.00;;;;;;;;;;5080754;28;20048;-51
2022/04/29 12:54:42;;;;;;;6.95;0.80;;;;;;;;;;5075331;28;20033;-51
2022/04/29 12:57:09;;;;;;;1.88;0.70;;;;;;;;;;5069515;28;20508;-55
2022/04/29 12:59:37;;;;;;;3.30;1.10;;;;;;;;;;5085119;28;20052;-56
2022/04/29 13:02:07;;;;;;;2.47;0.80;;;;;;;;;;5082399;28;20024;-55
2022/04/29 13:04:33;;;;;;;2.28;1.05;;;;;;;;;;5089406;28;20714;-53
2022/04/29 13:06:59;;;;;;;3.03;0.73;;;;;;;;;;5089082;28;20081;-54
2022/04/29 13:09:25;;;;;;;1.50;1.00;;;;;;;;;;5082094;28;20671;-53
2022/04/29 13:11:52;;;;;;;4.03;1.02;;;;;;;;;;5065696;28;20043;-53
2022/04/29 13:14:18;;;;;;;3.05;1.05;;;;;;;;;;5061842;28;20024;-53
2022/04/29 13:16:44;;;;;;;4.80;1.08;;;;;;;;;;5073411;28;20395;-53
2022/04/29 13:19:11;;;;;;;1.75;1.15;;;;;;;;;;5061202;28;20044;-53
2022/04/29 13:21:37;;;;;;;5.30;0.98;;;;;;;;;;5081512;28;20508;-53
2022/04/29 13:24:03;;;;;;;2.85;0.95;;;;;;;;;;5073195;28;20037;-51
2022/04/29 13:26:32;;;;;;;3.13;1.13;;;;;;;;;;5070295;28;20037;-53
2022/04/29 13:28:57;;;;;;;2.15;0.80;;;;;;;;;;5055954;28;20512;-53
2022/04/29 13:31:23;;;;;;;2.42;1.00;;;;;;;;;;5071498;28;20036;-50
2022/04/29 13:33:49;;;;;;;4.70;1.10;;;;;;;;;;5069086;28;20577;-54
2022/04/29 13:36:16;;;;;;;1.67;0.98;;;;;;;;;;5076132;28;20029;-56
2022/04/29 13:38:42;;;;;;;2.60;1.20;;;;;;;;;;5074006;28;20063;-55
2022/04/29 13:41:08;;;;;;;2.47;1.00;;;;;;;;;;5066920;28;20032;-55
2022/04/29 13:43:34;;;;;;;5.80;1.42;;;;;;;;;;5069712;28;20484;-55
2022/04/29 13:46:03;;;;;;;3.05;0.98;;;;;;;;;;5078314;28;20496;-55
2022/04/29 13:48:29;;;;;;;5.70;1.10;;;;;;;;;;5064553;28;20039;-55
2022/04/29 13:50:55;;;;;;;6.07;1.10;;;;;;;;;;5078910;28;20091;-56
2022/04/29 13:53:21;;;;;;;3.28;1.13;;;;;;;;;;5092647;28;20111;-54
2022/04/29 13:55:52;;;;;;;2.25;1.20;;;;;;;;;;5089260;28;20519;-54
2022/04/29 13:58:19;;;;;;;2.05;0.88;;;;;;;;;;5068925;28;20027;-53
2022/04/29 14:00:47;;;;;;;6.40;1.08;;;;;;;;;;5079036;28;20023;-55
2022/04/29 14:03:14;;;;;;;2.45;0.80;;;;;;;;;;5090084;28;20032;-56
2022/04/29 14:05:40;;;;;;;4.47;1.27;;;;;;;;;;5089618;28;20024;-54
2022/04/29 14:08:06;;;;;;;5.68;1.80;;;;;;;;;;5082522;28;20028;-54
2022/04/29 14:10:33;;;;;;;3.50;1.75;;;;;;;;;;5068584;28;20035;-55
2022/04/29 14:12:59;;;;;;;5.65;1.10;;;;;;;;;;5081272;28;20496;-55
2022/04/29 14:15:26;;;;;;;3.25;1.38;;;;;;;;;;5069374;28;20444;-51
2022/04/29 14:17:52;;;;;;;3.25;1.40;;;;;;;;;;5057926;28;20017;-56
2022/04/29 14:20:18;;;;;;;5.88;1.50;;;;;;;;;;5077074;28;20060;-56
2022/04/29 14:22:44;;;;;;;4.40;1.15;;;;;;;;;;5052560;28;20160;-56
2022/04/29 14:25:14;;;;;;;4.30;1.13;;;;;;;;;;5058135;28;20081;-56
2022/04/29 14:27:40;;;;;;;2.28;1.02;;;;;;;;;;5073593;28;20090;-54
2022/04/29 14:30:07;;;;;;;4.05;1.20;;;;;;;;;;5065087;28;20029;-53
2022/04/29 14:32:34;;;;;;;1.83;1.25;;;;;;;;;;5038133;28;20407;-51
2022/04/29 14:35:01;;;;;;;7.03;1.00;;;;;;;;;;5041268;28;20033;-53
2022/04/29 14:37:27;;;;;;;7.47;0.88;;;;;;;;;;5059120;28;20032;-55
2022/04/29 14:39:54;;;;;;;4.32;0.93;;;;;;;;;;5083222;28;20036;-53
2022/04/29 14:42:20;;;;;;;2.60;0.60;;;;;;;;;;5081024;28;20020;-54
2022/04/29 14:44:46;;;;;;;4.07;1.20;;;;;;;;;;5067281;28;20039;-56
2022/04/29 14:47:12;;;;;;;2.45;1.10;;;;;;;;;;5061629;28;20025;-56
2022/04/29 14:49:38;;;;;;;1.80;0.75;;;;;;;;;;5058602;28;20021;-53
2022/04/29 14:52:05;;;;;;;2.33;0.93;;;;;;;;;;5058526;28;20051;-51
2022/04/29 14:54:31;;;;;;;4.95;1.30;;;;;;;;;;5063677;28;20045;-53
2022/04/29 14:56:58;;;;;;;1.90;0.73;;;;;;;;;;5071187;28;20489;-53
2022/04/29 14:59:24;;;;;;;2.50;1.10;;;;;;;;;;5070347;28;20025;-51
2022/04/29 15:01:51;;;;;;;3.25;1.38;;;;;;;;;;5076208;28;20490;-56
2022/04/29 15:04:17;;;;;;;1.70;0.90;;;;;;;;;;5062124;28;20074;-54
2022/04/29 15:06:44;;;;;;;4.25;1.45;;;;;;;;;;5060122;28;20025;-54
2022/04/29 15:17:25;;;;;;;1.52;0.77;;;;;;;;;;5059102;28;20075;-51
2022/04/29 15:19:52;;;;;;;1.98;1.10;;;;;;;;;;5057633;28;20020;-54
2022/04/29 15:22:22;;;;;;;2.08;1.17;;;;;;;;;;5072339;28;20032;-53